createdAt,value
2023-04-03T00:03:40.806Z,1.28
2023-04-03T00:07:44.230Z,1.24
2023-04-03T00:11:47.977Z,1.04
2023-04-03T00:15:53.141Z,1.00
2023-04-03T00:19:56.329Z,0.75
2023-04-03T00:23:59.558Z,0.68
2023-04-03T00:28:03.762Z,0.55
2023-04-03T00:32:08.369Z,0.59
2023-04-03T00:36:12.531Z,0.52
2023-04-03T00:40:18.035Z,0.50
2023-04-03T00:44:23.533Z,0.51
2023-04-03T00:48:31.653Z,0.36
2023-04-03T00:52:35.629Z,0.45
2023-04-03T00:56:39.886Z,0.32
2023-04-03T01:00:46.395Z,0.54
2023-04-03T01:04:52.113Z,0.49
2023-04-03T01:08:56.469Z,0.42
2023-04-03T01:13:02.169Z,0.25
2023-04-03T01:17:05.367Z,0.19
2023-04-03T01:21:54.558Z,0.02
2023-04-03T01:26:00.248Z,0.08
2023-04-03T01:30:04.611Z,-0.08
2023-04-03T01:34:09.356Z,-0.12
2023-04-03T01:38:12.866Z,-0.25
2023-04-03T01:42:17.326Z,-0.27
2023-04-03T01:46:22.071Z,-0.21
2023-04-03T01:50:27.126Z,-0.13
2023-04-03T01:54:30.747Z,0.14
2023-04-03T01:58:34.182Z,0.29
2023-04-03T02:02:37.721Z,0.03
2023-04-03T02:06:42.400Z,-0.09
2023-04-03T02:10:46.357Z,-0.22
2023-04-03T02:14:49.653Z,-0.40
2023-04-03T02:18:52.992Z,-0.46
2023-04-03T02:22:57.839Z,-0.49
2023-04-03T02:27:02.426Z,-0.62
2023-04-03T02:31:07.588Z,-0.71
2023-04-03T02:35:12.534Z,-0.74
2023-04-03T02:39:18.284Z,-0.81
2023-04-03T02:43:22.072Z,-0.50
2023-04-03T02:47:25.627Z,-0.48
2023-04-03T02:51:28.853Z,-0.38
2023-04-03T02:55:33.689Z,-0.17
2023-04-03T02:59:37.279Z,-0.10
2023-04-03T03:03:40.519Z,0.01
2023-04-03T03:07:44.508Z,0.32
2023-04-03T03:11:49.070Z,0.28
2023-04-03T03:15:52.536Z,0.62
2023-04-03T03:19:55.781Z,0.77
2023-04-03T03:23:59.561Z,0.95
2023-04-03T03:28:05.189Z,0.93
2023-04-03T03:32:08.511Z,1.01
2023-04-03T03:36:12.905Z,0.82
2023-04-03T03:40:16.388Z,1.08
2023-04-03T03:44:23.477Z,1.04
2023-04-03T03:48:27.134Z,0.82
2023-04-03T03:52:32.360Z,0.79
2023-04-03T03:56:36.553Z,0.75
2023-04-03T04:00:41.552Z,0.64
2023-04-03T04:04:45.338Z,0.74
2023-04-03T04:08:48.899Z,0.65
2023-04-03T04:12:52.828Z,0.71
2023-04-03T04:17:03.447Z,0.75
2023-04-03T04:21:07.432Z,0.63
2023-04-03T04:25:11.659Z,0.63
2023-04-03T04:29:16.701Z,0.57
2023-04-03T04:33:24.424Z,0.46
2023-04-03T04:37:29.645Z,0.63
2023-04-03T04:41:36.588Z,0.58
2023-04-03T04:45:41.088Z,0.61
2023-04-03T04:49:46.452Z,0.66
2023-04-03T04:53:49.840Z,0.70
2023-04-03T04:57:55.799Z,0.51
2023-04-03T05:01:59.551Z,0.65
2023-04-03T05:06:05.843Z,0.54
2023-04-03T05:10:12.264Z,0.52
2023-04-03T05:14:16.494Z,0.56
2023-04-03T05:18:20.351Z,0.54
2023-04-03T05:22:25.741Z,0.59
2023-04-03T05:26:32.880Z,0.62
2023-04-03T05:30:37.496Z,0.58
2023-04-03T05:34:42.085Z,0.56
2023-04-03T05:38:46.967Z,0.60
2023-04-03T05:42:51.120Z,0.60
2023-04-03T05:46:57.094Z,0.65
2023-04-03T05:51:02.544Z,0.77
2023-04-03T05:55:08.154Z,0.79
2023-04-03T05:59:12.712Z,0.98
2023-04-03T06:03:16.876Z,1.04
2023-04-03T06:07:23.580Z,1.04
2023-04-03T06:11:28.000Z,1.11
2023-04-03T06:15:31.343Z,1.17
2023-04-03T06:19:34.442Z,1.27
2023-04-03T06:23:38.994Z,1.39
2023-04-03T06:27:43.886Z,1.43
2023-04-03T06:31:47.192Z,1.59
2023-04-03T06:35:50.669Z,1.73
2023-04-03T06:39:54.094Z,1.76
2023-04-03T06:43:59.484Z,1.89
2023-04-03T06:48:02.727Z,2.08
2023-04-03T06:52:06.948Z,2.21
2023-04-03T06:56:10.152Z,2.37
2023-04-03T07:00:17.313Z,2.45
2023-04-03T07:04:21.449Z,2.71
2023-04-03T07:08:24.814Z,2.69
2023-04-03T07:12:27.924Z,2.86
2023-04-03T07:16:32.943Z,3.07
2023-04-03T07:20:36.444Z,3.20
2023-04-03T07:24:39.444Z,3.24
2023-04-03T07:28:43.019Z,3.40
2023-04-03T07:32:47.560Z,3.59
2023-04-03T07:36:50.742Z,3.72
2023-04-03T07:40:54.619Z,3.98
2023-04-03T07:44:58.137Z,4.11
2023-04-03T07:49:02.579Z,4.42
2023-04-03T07:53:06.003Z,4.58
2023-04-03T07:57:09.084Z,5.06
2023-04-03T08:01:12.688Z,6.17
2023-04-03T08:05:17.246Z,5.65
2023-04-03T08:09:20.912Z,5.92
2023-04-03T08:13:24.620Z,5.39
2023-04-03T08:17:28.125Z,5.76
2023-04-03T08:21:33.272Z,6.32
2023-04-03T08:25:37.490Z,6.59
2023-04-03T08:29:40.906Z,7.64
2023-04-03T08:33:43.995Z,7.51
2023-04-03T08:37:48.492Z,7.34
2023-04-03T08:41:51.798Z,7.18
2023-04-03T08:45:59.834Z,7.18
2023-04-03T08:50:10.753Z,7.37
2023-04-03T08:54:27.678Z,8.25
2023-04-03T08:58:34.038Z,7.32
2023-04-03T09:02:43.724Z,8.20
2023-04-03T09:06:51.516Z,7.49
2023-04-03T09:11:07.494Z,8.26
2023-04-03T09:15:27.908Z,8.30
2023-04-03T09:19:45.867Z,8.55
2023-04-03T09:23:52.819Z,8.57
2023-04-03T09:27:58.128Z,8.99
2023-04-03T09:32:04.452Z,9.18
2023-04-03T09:36:08.520Z,9.28
2023-04-03T09:40:39.861Z,8.83
2023-04-03T09:44:44.880Z,8.68
2023-04-03T09:49:07.486Z,8.92
2023-04-03T09:53:29.989Z,9.43
2023-04-03T09:57:34.942Z,10.10
2023-04-03T10:01:41.469Z,9.95
2023-04-03T10:05:44.842Z,9.05
2023-04-03T10:09:57.350Z,9.18
2023-04-03T10:14:02.232Z,10.20
2023-04-03T10:18:24.298Z,10.07
2023-04-03T10:22:39.370Z,9.74
2023-04-03T10:26:51.643Z,9.36
2023-04-03T10:31:07.616Z,9.58
2023-04-03T10:35:21.403Z,9.30
2023-04-03T10:39:34.238Z,9.57
2023-04-03T10:43:45.328Z,8.95
2023-04-03T10:47:59.074Z,9.71
2023-04-03T10:52:12.722Z,9.64
2023-04-03T10:56:21.356Z,9.80
2023-04-03T11:00:38.473Z,10.44
2023-04-03T11:04:46.541Z,9.92
2023-04-03T11:08:57.740Z,10.27
2023-04-03T11:13:10.059Z,10.84
2023-04-03T11:17:29.685Z,11.35
2023-04-03T11:21:39.725Z,10.35
2023-04-03T11:25:45.920Z,10.75
2023-04-03T11:29:49.906Z,11.75
2023-04-03T11:34:06.186Z,11.44
2023-04-03T11:38:20.175Z,11.97
2023-04-03T11:42:34.601Z,12.75
2023-04-03T11:46:58.455Z,11.66
2023-04-03T11:51:02.418Z,12.93
2023-04-03T11:55:44.384Z,12.24
2023-04-03T11:59:49.182Z,10.98
2023-04-03T12:04:11.045Z,11.11
2023-04-03T12:08:27.761Z,11.93
2023-04-03T12:12:42.210Z,11.10
2023-04-03T12:16:49.411Z,11.27
2023-04-03T12:20:57.452Z,12.19
2023-04-03T12:25:00.521Z,12.07
2023-04-03T12:29:16.763Z,12.25
2023-04-03T12:33:31.861Z,12.28
2023-04-03T12:37:50.465Z,12.26
2023-04-03T12:42:05.694Z,12.60
2023-04-03T12:46:17.341Z,12.08
2023-04-03T12:50:26.191Z,12.65
2023-04-03T12:54:33.894Z,11.65
2023-04-03T12:58:37.073Z,13.21
2023-04-03T13:02:40.432Z,12.39
2023-04-03T13:06:46.359Z,11.69
2023-04-03T13:10:57.211Z,12.96
2023-04-03T13:15:02.415Z,11.55
2023-04-03T13:19:05.463Z,12.48
2023-04-03T13:23:12.948Z,12.45
2023-04-03T13:27:17.531Z,12.50
2023-04-03T13:31:25.975Z,12.49
2023-04-03T13:35:33.699Z,12.63
2023-04-03T13:39:40.129Z,13.41
2023-04-03T13:43:43.224Z,13.00
2023-04-03T13:47:48.693Z,11.88
2023-04-03T13:52:04.328Z,13.79
2023-04-03T13:56:22.348Z,13.14
2023-04-03T14:00:38.197Z,11.98
2023-04-03T14:04:50.743Z,13.01
2023-04-03T14:08:54.869Z,12.64
2023-04-03T14:12:59.560Z,13.14
2023-04-03T14:17:05.455Z,12.76
2023-04-03T14:21:10.881Z,12.36
2023-04-03T14:25:14.284Z,11.91
2023-04-03T14:29:19.069Z,11.58
2023-04-03T14:33:24.865Z,12.41
2023-04-03T14:37:31.445Z,13.08
2023-04-03T14:41:34.568Z,12.29
2023-04-03T14:45:40.515Z,13.12
2023-04-03T14:49:43.742Z,13.43
2023-04-03T14:53:47.292Z,12.41
2023-04-03T14:57:50.611Z,12.51
2023-04-03T15:01:55.125Z,12.90
2023-04-03T15:05:58.680Z,12.40
2023-04-03T15:10:03.896Z,12.67
2023-04-03T15:14:07.133Z,12.75
2023-04-03T15:18:17.393Z,12.81
2023-04-03T15:22:21.917Z,13.04
2023-04-03T15:26:25.224Z,12.26
2023-04-03T15:30:28.593Z,13.24
2023-04-03T15:34:33.104Z,12.75
2023-04-03T15:38:38.495Z,12.37
2023-04-03T15:42:42.425Z,12.93
2023-04-03T15:46:46.451Z,13.04
2023-04-03T15:50:51.009Z,12.38
2023-04-03T15:54:54.087Z,11.83
2023-04-03T15:58:58.239Z,12.34
2023-04-03T16:03:05.339Z,11.61
2023-04-03T16:07:10.150Z,12.28
2023-04-03T16:11:13.319Z,11.79
2023-04-03T16:15:16.476Z,11.15
2023-04-03T16:19:19.765Z,11.87
2023-04-03T16:23:24.937Z,11.19
2023-04-03T16:27:28.776Z,12.02
2023-04-03T16:31:34.399Z,11.74
2023-04-03T16:35:37.706Z,11.09
2023-04-03T16:39:42.479Z,11.61
2023-04-03T16:43:45.880Z,11.32
2023-04-03T16:47:49.341Z,11.34
2023-04-03T16:51:52.480Z,11.21
2023-04-03T16:55:59.786Z,10.68
2023-04-03T17:00:03.638Z,11.54
2023-04-03T17:04:09.314Z,10.85
2023-04-03T17:08:12.562Z,10.49
2023-04-03T17:12:17.865Z,10.15
2023-04-03T17:16:22.018Z,9.99
2023-04-03T17:20:25.642Z,9.83
2023-04-03T17:24:29.572Z,9.45
2023-04-03T17:28:34.318Z,9.18
2023-04-03T17:32:38.708Z,9.37
2023-04-03T17:36:43.094Z,8.80
2023-04-03T17:40:46.587Z,8.76
2023-04-03T17:44:51.141Z,7.98
2023-04-03T17:48:54.569Z,7.61
2023-04-03T17:52:57.907Z,7.29
2023-04-03T17:57:01.106Z,7.22
2023-04-03T18:01:15.264Z,7.09
2023-04-03T18:05:19.405Z,6.97
2023-04-03T18:09:26.218Z,6.88
2023-04-03T18:13:29.455Z,6.93
2023-04-03T18:17:33.979Z,6.66
2023-04-03T18:21:37.272Z,6.50
2023-04-03T18:25:40.819Z,6.45
2023-04-03T18:29:46.702Z,6.40
2023-04-03T18:33:54.051Z,6.30
2023-04-03T18:37:57.118Z,6.27
2023-04-03T18:42:06.297Z,6.17
2023-04-03T18:46:09.445Z,6.05
2023-04-03T18:50:17.325Z,6.00
2023-04-03T18:54:21.314Z,5.87
2023-04-03T18:58:24.521Z,5.92
2023-04-03T19:02:28.019Z,5.87
2023-04-03T19:06:33.796Z,5.84
2023-04-03T19:10:37.255Z,5.78
2023-04-03T19:14:40.600Z,5.60
2023-04-03T19:18:43.888Z,5.59
2023-04-03T19:22:48.750Z,5.57
2023-04-03T19:26:52.165Z,5.49
2023-04-03T19:30:55.928Z,5.49
2023-04-03T19:34:59.403Z,5.38
2023-04-03T19:39:03.959Z,5.34
2023-04-03T19:43:07.053Z,5.33
2023-04-03T19:47:10.941Z,5.24
2023-04-03T19:51:14.295Z,5.16
2023-04-03T19:55:19.130Z,5.06
2023-04-03T19:59:22.316Z,5.04
2023-04-03T20:03:26.337Z,4.92
2023-04-03T20:07:29.536Z,4.91
2023-04-03T20:11:35.734Z,4.85
2023-04-03T20:15:41.509Z,4.85
2023-04-03T20:19:44.676Z,4.81
2023-04-03T20:23:48.347Z,4.79
2023-04-03T20:27:54.314Z,4.67
2023-04-03T20:31:58.106Z,4.60
2023-04-03T20:36:01.688Z,4.64
2023-04-03T20:40:05.391Z,4.65
2023-04-03T20:44:10.351Z,4.67
2023-04-03T20:48:15.282Z,4.47
2023-04-03T20:52:18.567Z,4.43
2023-04-03T20:56:22.068Z,4.37
2023-04-03T21:00:27.787Z,4.32
2023-04-03T21:04:36.715Z,4.25
2023-04-03T21:09:18.238Z,4.06
2023-04-03T21:13:58.693Z,3.95
2023-04-03T21:18:23.557Z,3.83
2023-04-03T21:22:27.182Z,3.79
2023-04-03T21:26:31.111Z,3.69
2023-04-03T21:30:34.217Z,3.67
2023-04-03T21:34:39.217Z,3.63
2023-04-03T21:38:42.277Z,3.61
2023-04-03T21:42:45.449Z,3.58
2023-04-03T21:46:49.404Z,3.44
2023-04-03T21:50:54.776Z,3.48
2023-04-03T21:54:57.983Z,3.42
2023-04-03T21:59:03.222Z,3.40
2023-04-03T22:03:10.461Z,3.36
2023-04-03T22:07:15.432Z,3.28
2023-04-03T22:11:18.954Z,3.10
2023-04-03T22:15:22.447Z,3.02
2023-04-03T22:19:25.830Z,2.85
2023-04-03T22:23:31.968Z,2.74
2023-04-03T22:27:35.130Z,2.68
2023-04-03T22:31:38.662Z,2.75
2023-04-03T22:35:49.798Z,2.65
2023-04-03T22:39:54.785Z,2.75
2023-04-03T22:43:58.794Z,2.78
2023-04-03T22:48:04.660Z,2.69
2023-04-03T22:52:07.988Z,2.55
2023-04-03T22:56:14.991Z,2.63
2023-04-03T23:00:18.572Z,2.51
2023-04-03T23:04:25.024Z,2.68
2023-04-03T23:08:31.329Z,2.47
2023-04-03T23:12:39.457Z,2.35
2023-04-03T23:16:42.758Z,2.23
2023-04-03T23:20:46.191Z,2.15
2023-04-03T23:24:49.648Z,2.27
2023-04-03T23:28:54.046Z,2.13
2023-04-03T23:32:57.970Z,1.94
2023-04-03T23:37:01.464Z,1.91
2023-04-03T23:41:04.572Z,1.85
2023-04-03T23:45:13.179Z,1.80
2023-04-03T23:49:16.640Z,1.81
2023-04-03T23:53:19.814Z,1.85
2023-04-03T23:57:23.230Z,1.88
